createdAt,value
2022-11-03T00:01:46.740Z,83.07
2022-11-03T00:04:17.803Z,83.34
2022-11-03T00:06:45.331Z,81.92
2022-11-03T00:09:13.080Z,81.95
2022-11-03T00:11:40.701Z,81.71
2022-11-03T00:14:07.469Z,82.28
2022-11-03T00:16:34.145Z,82.88
2022-11-03T00:19:01.031Z,82.83
2022-11-03T00:21:27.632Z,82.71
2022-11-03T00:23:54.350Z,82.74
2022-11-03T00:26:22.238Z,83.55
2022-11-03T00:28:53.247Z,83.83
2022-11-03T00:31:27.891Z,83.74
2022-11-03T00:33:54.747Z,84.29
2022-11-03T00:36:32.062Z,84.31
2022-11-03T00:38:58.798Z,84.44
2022-11-03T00:41:25.738Z,84.82
2022-11-03T00:43:52.645Z,84.80
2022-11-03T00:46:20.017Z,84.21
2022-11-03T00:48:46.611Z,84.39
2022-11-03T00:51:14.369Z,84.46
2022-11-03T00:53:48.241Z,84.10
2022-11-03T00:56:16.612Z,84.45
2022-11-03T00:58:43.396Z,84.20
2022-11-03T01:01:13.794Z,83.79
2022-11-03T01:03:41.385Z,84.16
2022-11-03T01:06:27.828Z,84.07
2022-11-03T01:08:54.747Z,84.08
2022-11-03T01:11:42.072Z,84.19
2022-11-03T01:14:59.544Z,84.45
2022-11-03T01:17:27.543Z,84.30
2022-11-03T01:19:54.385Z,84.31
2022-11-03T01:22:21.444Z,84.27
2022-11-03T01:24:48.027Z,84.32
2022-11-03T01:27:16.211Z,84.62
2022-11-03T01:29:42.954Z,84.69
2022-11-03T01:32:10.108Z,84.87
2022-11-03T01:34:36.895Z,84.89
2022-11-03T01:37:03.641Z,84.58
2022-11-03T01:39:30.221Z,84.48
2022-11-03T01:41:56.885Z,84.89
2022-11-03T01:44:24.291Z,84.96
2022-11-03T01:46:54.954Z,85.35
2022-11-03T01:49:34.020Z,84.47
2022-11-03T01:52:08.152Z,84.35
2022-11-03T01:54:34.766Z,83.93
2022-11-03T01:57:01.329Z,83.78
2022-11-03T01:59:27.978Z,83.91
2022-11-03T02:01:54.885Z,84.31
2022-11-03T02:04:27.049Z,83.60
2022-11-03T02:07:14.395Z,83.79
2022-11-03T02:09:41.114Z,83.90
2022-11-03T02:12:08.003Z,83.40
2022-11-03T02:14:40.898Z,83.36
2022-11-03T02:17:09.972Z,83.68
2022-11-03T02:19:41.051Z,83.92
2022-11-03T02:22:17.839Z,84.50
2022-11-03T02:24:53.964Z,82.93
2022-11-03T02:27:21.072Z,83.06
2022-11-03T02:29:47.677Z,82.59
2022-11-03T02:32:22.878Z,83.46
2022-11-03T02:34:54.418Z,83.31
2022-11-03T02:37:26.154Z,83.50
2022-11-03T02:40:05.854Z,83.42
2022-11-03T02:42:32.980Z,83.53
2022-11-03T02:45:00.816Z,83.17
2022-11-03T02:47:27.459Z,83.24
2022-11-03T02:52:41.180Z,83.66
2022-11-03T02:55:15.337Z,83.42
2022-11-03T02:58:10.106Z,83.37
2022-11-03T03:01:00.944Z,83.77
2022-11-03T03:03:35.917Z,83.44
2022-11-03T03:06:02.880Z,83.03
2022-11-03T03:08:29.513Z,83.54
2022-11-03T03:10:56.096Z,83.78
2022-11-03T03:13:22.824Z,84.02
2022-11-03T03:15:56.954Z,83.46
2022-11-03T03:18:27.692Z,83.80
2022-11-03T03:21:01.455Z,84.26
2022-11-03T03:23:31.850Z,84.23
2022-11-03T03:26:12.410Z,84.20
2022-11-03T03:28:43.734Z,84.06
2022-11-03T03:31:11.817Z,84.55
2022-11-03T03:33:40.731Z,84.73
2022-11-03T03:36:12.141Z,84.35
2022-11-03T03:38:44.270Z,84.80
2022-11-03T03:41:12.172Z,85.00
2022-11-03T03:43:38.765Z,84.87
2022-11-03T03:46:08.174Z,84.78
2022-11-03T03:48:34.780Z,84.67
2022-11-03T03:51:01.802Z,84.23
2022-11-03T03:53:29.652Z,84.20
2022-11-03T03:55:56.326Z,84.33
2022-11-03T03:58:23.102Z,84.27
2022-11-03T04:00:49.841Z,84.59
2022-11-03T04:03:21.185Z,85.09
2022-11-03T04:05:48.048Z,84.03
2022-11-03T04:08:15.547Z,84.48
2022-11-03T04:11:02.324Z,83.97
2022-11-03T04:13:47.618Z,84.30
2022-11-03T04:16:32.740Z,84.15
2022-11-03T04:19:18.213Z,84.09
2022-11-03T04:22:03.527Z,83.39
2022-11-03T04:24:30.286Z,83.31
2022-11-03T04:27:02.861Z,83.35
2022-11-03T04:29:29.736Z,83.99
2022-11-03T04:31:56.714Z,83.66
2022-11-03T04:34:24.206Z,84.42
2022-11-03T04:36:50.786Z,84.20
2022-11-03T04:39:19.890Z,84.29
2022-11-03T04:41:46.667Z,84.06
2022-11-03T04:44:16.844Z,84.34
2022-11-03T04:46:44.070Z,84.17
2022-11-03T04:49:20.791Z,84.23
2022-11-03T04:51:47.422Z,84.07
2022-11-03T04:54:15.942Z,84.20
2022-11-03T04:56:42.826Z,84.27
2022-11-03T04:59:11.219Z,83.93
2022-11-03T05:01:38.058Z,83.72
2022-11-03T05:04:08.606Z,84.15
2022-11-03T05:06:35.233Z,83.80
2022-11-03T05:09:03.212Z,83.72
2022-11-03T05:11:40.238Z,83.83
2022-11-03T05:14:20.633Z,83.92
2022-11-03T05:16:48.159Z,84.23
2022-11-03T05:19:26.533Z,84.60
2022-11-03T05:21:53.418Z,84.40
2022-11-03T05:24:21.296Z,84.52
2022-11-03T05:26:48.314Z,84.72
2022-11-03T05:29:21.750Z,84.59
2022-11-03T05:31:48.674Z,84.56
2022-11-03T05:34:33.091Z,84.01
2022-11-03T05:37:29.602Z,84.41
2022-11-03T05:40:05.090Z,84.24
2022-11-03T05:42:36.686Z,84.13
2022-11-03T05:45:24.611Z,83.92
2022-11-03T05:47:53.864Z,84.60
2022-11-03T05:50:22.171Z,83.96
2022-11-03T05:52:49.902Z,84.55
2022-11-03T05:55:34.979Z,84.45
2022-11-03T05:58:27.772Z,84.22
2022-11-03T06:00:54.459Z,83.33
2022-11-03T06:03:27.786Z,83.53
2022-11-03T06:05:54.348Z,83.32
2022-11-03T06:10:51.212Z,83.97
2022-11-03T06:13:25.165Z,83.56
2022-11-03T06:15:56.824Z,83.57
2022-11-03T06:18:24.601Z,83.70
2022-11-03T06:20:58.976Z,83.53
2022-11-03T06:23:25.567Z,84.02
2022-11-03T06:25:53.125Z,84.22
2022-11-03T06:28:29.145Z,84.81
2022-11-03T06:30:55.753Z,84.42
2022-11-03T06:33:27.183Z,84.64
2022-11-03T06:35:55.841Z,84.81
2022-11-03T06:38:27.622Z,84.83
2022-11-03T06:40:54.283Z,84.76
2022-11-03T06:43:22.161Z,84.55
2022-11-03T06:45:53.749Z,84.13
2022-11-03T06:48:26.287Z,84.06
2022-11-03T06:50:53.691Z,84.32
2022-11-03T06:53:31.718Z,84.15
2022-11-03T06:55:58.409Z,83.64
2022-11-03T06:58:25.335Z,83.20
2022-11-03T07:00:52.422Z,83.30
2022-11-03T07:03:33.639Z,83.11
2022-11-03T07:06:27.409Z,82.80
2022-11-03T07:09:01.213Z,82.48
2022-11-03T07:11:41.548Z,82.25
2022-11-03T07:14:13.017Z,82.44
2022-11-03T07:16:55.958Z,81.91
2022-11-03T07:19:25.208Z,82.21
2022-11-03T07:21:54.047Z,81.85
2022-11-03T07:24:42.181Z,81.70
2022-11-03T07:27:28.279Z,81.63
2022-11-03T07:29:58.507Z,81.35
2022-11-03T07:32:29.403Z,80.80
2022-11-03T07:35:25.772Z,81.58
2022-11-03T07:37:52.531Z,81.46
2022-11-03T07:40:21.883Z,80.99
2022-11-03T07:42:48.505Z,81.27
2022-11-03T07:45:40.521Z,81.48
2022-11-03T07:48:20.721Z,81.04
2022-11-03T07:50:48.552Z,80.70
2022-11-03T07:53:45.671Z,79.26
2022-11-03T07:56:19.493Z,79.48
2022-11-03T07:58:46.186Z,78.08
2022-11-03T08:01:26.601Z,75.54
2022-11-03T08:03:54.092Z,72.75
2022-11-03T08:06:20.671Z,70.78
2022-11-03T08:08:47.470Z,65.16
2022-11-03T08:13:45.715Z,60.25
2022-11-03T08:16:12.289Z,57.99
2022-11-03T08:18:39.060Z,57.77
2022-11-03T08:21:05.825Z,57.13
2022-11-03T08:23:32.853Z,56.34
2022-11-03T08:26:00.149Z,57.45
2022-11-03T08:28:26.875Z,57.30
2022-11-03T08:30:53.497Z,55.81
2022-11-03T08:33:20.216Z,53.95
2022-11-03T08:35:48.168Z,53.43
2022-11-03T08:38:14.779Z,52.35
2022-11-03T08:40:41.393Z,51.36
2022-11-03T08:43:08.058Z,51.57
2022-11-03T08:45:34.656Z,50.86
2022-11-03T08:48:01.416Z,51.60
2022-11-03T08:50:28.046Z,52.46
2022-11-03T08:52:54.708Z,53.18
2022-11-03T08:55:21.395Z,52.95
2022-11-03T08:57:48.089Z,53.55
2022-11-03T09:00:27.877Z,54.30
2022-11-03T09:02:54.466Z,55.08
2022-11-03T09:05:21.141Z,55.91
2022-11-03T09:10:37.013Z,58.75
2022-11-03T09:13:06.701Z,60.14
2022-11-03T09:15:33.476Z,61.78
2022-11-03T09:18:00.108Z,62.14
2022-11-03T09:20:27.090Z,61.20
2022-11-03T09:22:53.782Z,61.66
2022-11-03T09:25:20.362Z,62.15
2022-11-03T09:27:47.209Z,62.40
2022-11-03T09:30:14.604Z,62.85
2022-11-03T09:32:41.417Z,63.68
2022-11-03T09:35:09.764Z,63.45
2022-11-03T09:37:36.909Z,63.09
2022-11-03T09:40:04.293Z,62.84
2022-11-03T09:42:34.369Z,63.08
2022-11-03T09:45:01.351Z,63.76
2022-11-03T09:47:31.945Z,63.61
2022-11-03T09:49:58.527Z,64.92
2022-11-03T09:52:25.224Z,64.18
2022-11-03T09:54:53.064Z,64.33
2022-11-03T09:57:19.877Z,65.42
2022-11-03T09:59:48.392Z,65.77
2022-11-03T10:02:31.535Z,64.12
2022-11-03T10:05:00.358Z,64.67
2022-11-03T10:07:27.619Z,62.75
2022-11-03T10:09:54.343Z,59.39
2022-11-03T10:12:21.951Z,59.49
2022-11-03T10:14:48.540Z,61.20
2022-11-03T10:17:20.117Z,54.39
2022-11-03T10:19:51.883Z,54.62
2022-11-03T10:22:20.033Z,50.25
2022-11-03T10:24:46.779Z,51.29
2022-11-03T10:27:25.409Z,51.48
2022-11-03T10:30:07.908Z,47.93
2022-11-03T10:32:35.021Z,50.79
2022-11-03T10:35:24.528Z,53.39
2022-11-03T10:37:51.129Z,53.64
2022-11-03T10:40:51.979Z,52.64
2022-11-03T10:43:18.770Z,47.75
2022-11-03T10:45:45.511Z,48.52
2022-11-03T10:48:12.167Z,48.82
2022-11-03T10:50:42.329Z,50.54
2022-11-03T10:53:17.617Z,48.52
2022-11-03T10:55:44.512Z,47.14
2022-11-03T10:58:11.158Z,46.41
2022-11-03T11:00:38.030Z,46.05
2022-11-03T11:03:06.036Z,46.90
2022-11-03T11:05:33.180Z,47.04
2022-11-03T11:07:59.906Z,46.20
2022-11-03T11:10:27.931Z,46.00
2022-11-03T11:13:13.742Z,44.14
2022-11-03T11:15:47.146Z,42.90
2022-11-03T11:18:46.074Z,43.68
2022-11-03T11:21:15.624Z,41.24
2022-11-03T11:23:42.254Z,40.78
2022-11-03T11:26:08.887Z,39.72
2022-11-03T11:29:11.153Z,39.53
2022-11-03T11:31:46.537Z,38.78
2022-11-03T11:34:19.854Z,38.22
2022-11-03T11:36:47.526Z,39.82
2022-11-03T11:39:20.259Z,39.41
2022-11-03T11:42:09.908Z,39.76
2022-11-03T11:44:39.677Z,42.07
2022-11-03T11:47:26.349Z,41.20
2022-11-03T11:50:06.925Z,41.52
2022-11-03T11:52:47.103Z,39.42
2022-11-03T11:55:46.042Z,40.60
2022-11-03T11:58:32.344Z,41.47
2022-11-03T12:01:00.777Z,43.52
2022-11-03T12:03:46.761Z,39.82
2022-11-03T12:06:13.569Z,40.60
2022-11-03T12:08:40.267Z,41.56
2022-11-03T12:11:07.709Z,41.23
2022-11-03T12:13:42.912Z,40.54
2022-11-03T12:16:10.019Z,41.05
2022-11-03T12:18:44.750Z,40.79
2022-11-03T12:21:14.721Z,43.40
2022-11-03T12:23:45.352Z,43.60
2022-11-03T12:26:18.853Z,43.71
2022-11-03T12:28:45.555Z,42.75
2022-11-03T12:31:12.694Z,42.51
2022-11-03T12:33:39.624Z,43.79
2022-11-03T12:36:06.628Z,42.61
2022-11-03T12:38:33.392Z,43.01
2022-11-03T12:41:19.961Z,41.65
2022-11-03T12:43:47.287Z,42.92
2022-11-03T12:46:14.215Z,42.63
2022-11-03T12:48:44.226Z,41.04
2022-11-03T12:51:12.455Z,39.86
2022-11-03T12:53:39.771Z,41.47
2022-11-03T12:56:06.812Z,41.25
2022-11-03T12:58:33.534Z,41.54
2022-11-03T13:01:01.804Z,41.03
2022-11-03T13:03:29.171Z,42.30
2022-11-03T13:05:56.103Z,42.72
2022-11-03T13:08:38.095Z,43.58
2022-11-03T13:11:04.982Z,43.14
2022-11-03T13:13:32.795Z,43.87
2022-11-03T13:15:59.574Z,43.27
2022-11-03T13:18:26.365Z,43.98
2022-11-03T13:20:52.959Z,45.13
2022-11-03T13:23:22.980Z,45.23
2022-11-03T13:25:49.949Z,44.76
2022-11-03T13:28:16.591Z,45.28
2022-11-03T13:30:43.347Z,45.81
2022-11-03T13:33:10.448Z,46.15
2022-11-03T13:35:37.611Z,46.55
2022-11-03T13:38:04.264Z,46.58
2022-11-03T13:43:17.583Z,46.05
2022-11-03T13:45:44.358Z,45.58
2022-11-03T13:50:57.820Z,46.27
2022-11-03T13:56:16.843Z,46.42
2022-11-03T14:01:36.666Z,47.36
2022-11-03T14:06:50.308Z,48.01
2022-11-03T14:09:17.146Z,47.96
2022-11-03T14:12:02.319Z,48.33
2022-11-03T14:14:29.068Z,48.52
2022-11-03T14:16:55.859Z,48.99
2022-11-03T14:19:28.772Z,49.77
2022-11-03T14:22:00.389Z,50.18
2022-11-03T14:24:27.058Z,50.92
2022-11-03T14:26:53.847Z,51.26
2022-11-03T14:29:20.495Z,51.45
2022-11-03T14:31:47.256Z,52.47
2022-11-03T14:34:13.906Z,52.12
2022-11-03T14:36:40.572Z,52.29
2022-11-03T14:39:07.396Z,52.92
2022-11-03T14:41:52.573Z,53.19
2022-11-03T14:44:19.536Z,53.60
2022-11-03T14:46:46.352Z,53.94
2022-11-03T14:49:12.945Z,54.39
2022-11-03T14:51:39.675Z,55.19
2022-11-03T14:54:06.277Z,55.32
2022-11-03T14:56:32.913Z,55.34
2022-11-03T14:58:59.655Z,55.72
2022-11-03T15:01:26.437Z,55.75
2022-11-03T15:03:53.126Z,55.68
2022-11-03T15:06:19.769Z,55.83
2022-11-03T15:08:48.877Z,56.18
2022-11-03T15:11:17.391Z,56.59
2022-11-03T15:13:47.153Z,57.06
2022-11-03T15:16:15.177Z,56.69
2022-11-03T15:18:44.106Z,57.34
2022-11-03T15:21:11.575Z,57.72
2022-11-03T15:26:24.799Z,57.59
2022-11-03T15:28:51.568Z,57.76
2022-11-03T15:31:18.167Z,57.69
2022-11-03T15:33:44.736Z,58.17
2022-11-03T15:36:11.915Z,58.50
2022-11-03T15:38:38.634Z,58.01
2022-11-03T15:41:17.323Z,57.86
2022-11-03T15:43:44.608Z,58.51
2022-11-03T15:46:11.242Z,58.20
2022-11-03T15:48:38.211Z,58.27
2022-11-03T15:51:05.232Z,57.94
2022-11-03T15:53:31.867Z,58.76
2022-11-03T15:55:58.554Z,58.37
2022-11-03T15:58:25.208Z,58.27
2022-11-03T16:00:51.904Z,58.47
2022-11-03T16:03:18.717Z,58.38
2022-11-03T16:05:45.329Z,58.10
2022-11-03T16:08:12.324Z,58.35
2022-11-03T16:10:41.554Z,58.54
2022-11-03T16:13:10.817Z,59.20
2022-11-03T16:15:37.443Z,59.02
2022-11-03T16:18:04.055Z,59.12
2022-11-03T16:20:30.812Z,59.18
2022-11-03T16:22:57.525Z,59.11
2022-11-03T16:25:24.250Z,59.29
2022-11-03T16:27:50.979Z,58.63
2022-11-03T16:30:17.623Z,59.05
2022-11-03T16:32:44.301Z,59.13
2022-11-03T16:35:11.148Z,58.99
2022-11-03T16:37:37.783Z,59.05
2022-11-03T16:40:05.528Z,59.21
2022-11-03T16:42:38.524Z,59.61
2022-11-03T16:45:15.171Z,59.22
2022-11-03T16:47:41.770Z,59.65
2022-11-03T16:50:08.586Z,59.31
2022-11-03T16:52:35.281Z,58.56
2022-11-03T16:55:01.897Z,58.89
2022-11-03T16:57:28.707Z,58.54
2022-11-03T16:59:55.924Z,58.33
2022-11-03T17:02:22.648Z,58.69
2022-11-03T17:04:49.567Z,58.83
2022-11-03T17:07:16.158Z,59.17
2022-11-03T17:09:42.740Z,58.60
2022-11-03T17:12:09.314Z,59.03
2022-11-03T17:14:36.514Z,59.03
2022-11-03T17:17:03.160Z,58.74
2022-11-03T17:19:29.759Z,58.50
2022-11-03T17:21:56.533Z,58.47
2022-11-03T17:24:23.089Z,58.99
2022-11-03T17:27:15.890Z,58.96
2022-11-03T17:29:44.885Z,59.05
2022-11-03T17:32:13.839Z,59.08
2022-11-03T17:34:40.635Z,58.95
2022-11-03T17:37:07.382Z,59.02
2022-11-03T17:39:34.455Z,59.09
2022-11-03T17:42:22.880Z,59.10
2022-11-03T17:44:50.161Z,58.98
2022-11-03T17:47:17.700Z,59.26
2022-11-03T17:49:44.561Z,59.17
2022-11-03T17:52:16.673Z,59.36
2022-11-03T17:54:43.291Z,58.81
2022-11-03T17:57:15.463Z,59.43
2022-11-03T17:59:42.252Z,59.56
2022-11-03T18:02:14.097Z,59.83
2022-11-03T18:04:41.003Z,59.44
2022-11-03T18:07:21.604Z,59.85
2022-11-03T18:09:48.518Z,59.89
2022-11-03T18:12:33.739Z,59.11
2022-11-03T18:15:08.567Z,59.24
2022-11-03T18:17:35.580Z,58.57
2022-11-03T18:20:02.273Z,58.59
2022-11-03T18:22:28.866Z,58.78
2022-11-03T18:24:55.517Z,58.16
2022-11-03T18:27:25.242Z,58.50
2022-11-03T18:29:52.232Z,58.60
2022-11-03T18:32:19.372Z,58.52
2022-11-03T18:34:45.989Z,58.80
2022-11-03T18:37:12.686Z,58.65
2022-11-03T18:39:39.461Z,58.49
2022-11-03T18:42:13.615Z,58.82
2022-11-03T18:44:41.621Z,58.34
2022-11-03T18:47:08.287Z,58.34
2022-11-03T18:49:34.916Z,58.13
2022-11-03T18:52:07.325Z,58.59
2022-11-03T18:54:34.594Z,58.45
2022-11-03T18:57:01.322Z,58.37
2022-11-03T18:59:31.023Z,58.29
2022-11-03T19:01:58.132Z,57.32
2022-11-03T19:04:24.839Z,58.29
2022-11-03T19:06:51.794Z,58.50
2022-11-03T19:09:26.208Z,58.73
2022-11-03T19:11:54.598Z,58.54
2022-11-03T19:14:27.071Z,57.99
2022-11-03T19:17:24.304Z,59.08
2022-11-03T19:19:41.307Z,59.11
2022-11-03T19:22:15.890Z,59.16
2022-11-03T19:24:43.054Z,59.01
2022-11-03T19:27:18.472Z,59.41
2022-11-03T19:29:45.171Z,59.73
2022-11-03T19:32:20.834Z,58.93
2022-11-03T19:34:56.354Z,59.66
2022-11-03T19:37:22.975Z,59.62
2022-11-03T19:39:49.604Z,59.83
2022-11-03T19:42:29.142Z,59.65
2022-11-03T19:44:56.205Z,59.97
2022-11-03T19:47:25.000Z,59.78
2022-11-03T19:49:53.665Z,60.07
2022-11-03T19:52:20.508Z,59.85
2022-11-03T19:54:48.340Z,60.52
2022-11-03T19:57:16.890Z,60.30
2022-11-03T19:59:43.942Z,60.54
2022-11-03T20:02:11.836Z,60.36
2022-11-03T20:04:39.467Z,61.02
2022-11-03T20:07:06.723Z,60.97
2022-11-03T20:09:33.571Z,61.04
2022-11-03T20:12:04.466Z,60.75
2022-11-03T20:14:31.536Z,61.27
2022-11-03T20:16:59.536Z,61.46
2022-11-03T20:19:26.653Z,60.97
2022-11-03T20:21:53.349Z,60.79
2022-11-03T20:24:20.094Z,60.74
2022-11-03T20:26:47.011Z,60.96
2022-11-03T20:29:14.689Z,60.98
2022-11-03T20:31:42.459Z,61.21
2022-11-03T20:34:15.297Z,61.04
2022-11-03T20:36:42.175Z,60.98
2022-11-03T20:39:13.464Z,61.52
2022-11-03T20:41:42.205Z,61.67
2022-11-03T20:44:09.348Z,61.36
2022-11-03T20:46:36.016Z,61.56
2022-11-03T20:49:02.840Z,61.56
2022-11-03T20:51:38.043Z,61.79
2022-11-03T20:54:12.368Z,62.25
2022-11-03T20:56:38.963Z,61.93
2022-11-03T20:59:05.625Z,62.02
2022-11-03T21:01:33.389Z,62.84
2022-11-03T21:04:00.797Z,62.45
2022-11-03T21:06:29.144Z,62.44
2022-11-03T21:08:56.162Z,62.41
2022-11-03T21:11:24.015Z,62.89
2022-11-03T21:13:55.650Z,62.91
2022-11-03T21:16:41.777Z,62.92
2022-11-03T21:19:38.791Z,63.06
2022-11-03T21:22:45.936Z,63.30
2022-11-03T21:25:14.122Z,64.24
2022-11-03T21:27:42.162Z,63.56
2022-11-03T21:30:14.189Z,64.07
2022-11-03T21:32:41.301Z,63.93
2022-11-03T21:35:09.877Z,63.61
2022-11-03T21:37:36.846Z,64.31
2022-11-03T21:40:03.488Z,64.73
2022-11-03T21:42:48.856Z,64.60
2022-11-03T21:45:15.847Z,64.08
2022-11-03T21:48:02.491Z,64.32
2022-11-03T21:50:29.097Z,64.33
2022-11-03T21:52:55.771Z,64.50
2022-11-03T21:55:22.464Z,64.89
2022-11-03T21:57:49.095Z,64.63
2022-11-03T22:00:16.429Z,64.77
2022-11-03T22:02:43.217Z,64.66
2022-11-03T22:05:11.180Z,64.40
2022-11-03T22:07:37.861Z,64.05
2022-11-03T22:10:05.212Z,64.04
2022-11-03T22:12:31.795Z,64.67
2022-11-03T22:15:16.931Z,64.37
2022-11-03T22:17:46.742Z,64.31
2022-11-03T22:20:31.736Z,64.08
2022-11-03T22:23:20.045Z,63.52
2022-11-03T22:26:08.274Z,64.01
2022-11-03T22:28:34.967Z,64.03
2022-11-03T22:31:22.768Z,63.80
2022-11-03T22:34:08.035Z,64.05
2022-11-03T22:36:34.688Z,63.53
2022-11-03T22:39:19.777Z,63.29
2022-11-03T22:42:22.315Z,63.34
2022-11-03T22:45:07.505Z,63.47
2022-11-03T22:47:34.142Z,63.85
2022-11-03T22:50:00.714Z,63.72
2022-11-03T22:52:27.316Z,63.42
2022-11-03T22:54:53.962Z,63.41
2022-11-03T22:57:20.566Z,63.53
2022-11-03T22:59:47.585Z,63.44
2022-11-03T23:02:14.472Z,62.96
2022-11-03T23:04:41.253Z,62.98
2022-11-03T23:07:07.869Z,63.05
2022-11-03T23:09:34.506Z,63.00
2022-11-03T23:12:01.096Z,62.69
2022-11-03T23:14:47.711Z,63.11
2022-11-03T23:17:14.286Z,63.02
2022-11-03T23:19:59.618Z,63.42
2022-11-03T23:22:26.073Z,63.67
2022-11-03T23:25:01.654Z,63.18
2022-11-03T23:27:28.620Z,62.78
2022-11-03T23:29:55.474Z,63.06
2022-11-03T23:32:22.073Z,63.38
2022-11-03T23:34:48.713Z,63.18
2022-11-03T23:37:15.349Z,63.49
2022-11-03T23:39:41.966Z,62.51
2022-11-03T23:42:08.663Z,62.90
2022-11-03T23:44:55.280Z,62.18
2022-11-03T23:47:40.353Z,62.38
2022-11-03T23:50:07.297Z,61.63
2022-11-03T23:52:34.035Z,62.16
2022-11-03T23:55:00.581Z,61.66
2022-11-03T23:57:45.747Z,61.05
